sensor_id;sensor_type;location;lat;lon;timestamp;P1;durP1;ratioP1;P2;durP2;ratioP2
8058;SDS011;4072;42.668;23.396;2023-10-13T00:02:15;7.27;;;5.33;;
8058;SDS011;4072;42.668;23.396;2023-10-13T00:04:45;5.67;;;4.97;;
8058;SDS011;4072;42.668;23.396;2023-10-13T00:07:17;5.40;;;4.90;;
8058;SDS011;4072;42.668;23.396;2023-10-13T00:09:45;4.90;;;4.33;;
8058;SDS011;4072;42.668;23.396;2023-10-13T00:12:13;5.83;;;4.97;;
8058;SDS011;4072;42.668;23.396;2023-10-13T00:14:49;5.83;;;5.23;;
8058;SDS011;4072;42.668;23.396;2023-10-13T00:17:20;5.47;;;4.80;;
8058;SDS011;4072;42.668;23.396;2023-10-13T00:19:52;5.53;;;4.83;;
8058;SDS011;4072;42.668;23.396;2023-10-13T00:22:21;6.17;;;4.57;;
8058;SDS011;4072;42.668;23.396;2023-10-13T00:24:51;5.97;;;4.67;;
8058;SDS011;4072;42.668;23.396;2023-10-13T00:27:25;6.60;;;4.67;;
8058;SDS011;4072;42.668;23.396;2023-10-13T00:29:58;5.73;;;5.20;;
8058;SDS011;4072;42.668;23.396;2023-10-13T00:32:49;5.17;;;4.67;;
8058;SDS011;4072;42.668;23.396;2023-10-13T00:35:22;6.07;;;5.20;;
8058;SDS011;4072;42.668;23.396;2023-10-13T00:37:56;6.20;;;4.97;;
8058;SDS011;4072;42.668;23.396;2023-10-13T00:40:31;6.13;;;4.83;;
8058;SDS011;4072;42.668;23.396;2023-10-13T00:43:10;6.70;;;5.30;;
8058;SDS011;4072;42.668;23.396;2023-10-13T00:46:01;6.90;;;5.07;;
8058;SDS011;4072;42.668;23.396;2023-10-13T00:48:40;6.70;;;4.87;;
8058;SDS011;4072;42.668;23.396;2023-10-13T00:51:18;6.30;;;4.70;;
8058;SDS011;4072;42.668;23.396;2023-10-13T00:54:02;8.03;;;6.60;;
8058;SDS011;4072;42.668;23.396;2023-10-13T00:56:34;8.73;;;6.30;;
8058;SDS011;4072;42.668;23.396;2023-10-13T00:59:07;10.43;;;6.73;;
8058;SDS011;4072;42.668;23.396;2023-10-13T01:01:37;9.47;;;6.57;;
8058;SDS011;4072;42.668;23.396;2023-10-13T01:04:07;7.73;;;6.57;;
8058;SDS011;4072;42.668;23.396;2023-10-13T01:06:39;7.27;;;5.77;;
8058;SDS011;4072;42.668;23.396;2023-10-13T01:09:08;9.00;;;6.50;;
8058;SDS011;4072;42.668;23.396;2023-10-13T01:11:44;9.07;;;6.40;;
8058;SDS011;4072;42.668;23.396;2023-10-13T01:14:14;8.07;;;6.50;;
8058;SDS011;4072;42.668;23.396;2023-10-13T01:16:45;9.67;;;7.87;;
8058;SDS011;4072;42.668;23.396;2023-10-13T01:19:13;11.23;;;8.67;;
8058;SDS011;4072;42.668;23.396;2023-10-13T01:21:44;12.33;;;9.57;;
8058;SDS011;4072;42.668;23.396;2023-10-13T01:24:14;13.20;;;8.20;;
8058;SDS011;4072;42.668;23.396;2023-10-13T01:26:44;8.43;;;6.73;;
8058;SDS011;4072;42.668;23.396;2023-10-13T01:29:11;11.47;;;6.47;;
8058;SDS011;4072;42.668;23.396;2023-10-13T01:31:40;7.57;;;5.77;;
8058;SDS011;4072;42.668;23.396;2023-10-13T01:34:13;7.70;;;5.73;;
8058;SDS011;4072;42.668;23.396;2023-10-13T01:36:47;7.77;;;6.63;;
8058;SDS011;4072;42.668;23.396;2023-10-13T01:39:19;7.90;;;6.40;;
8058;SDS011;4072;42.668;23.396;2023-10-13T01:41:48;6.27;;;5.63;;
8058;SDS011;4072;42.668;23.396;2023-10-13T01:44:23;6.97;;;6.27;;
8058;SDS011;4072;42.668;23.396;2023-10-13T01:46:54;9.10;;;6.63;;
8058;SDS011;4072;42.668;23.396;2023-10-13T01:49:22;8.40;;;6.50;;
8058;SDS011;4072;42.668;23.396;2023-10-13T01:51:50;7.57;;;6.67;;
8058;SDS011;4072;42.668;23.396;2023-10-13T01:54:17;9.20;;;6.70;;
8058;SDS011;4072;42.668;23.396;2023-10-13T01:56:48;8.47;;;6.57;;
8058;SDS011;4072;42.668;23.396;2023-10-13T01:59:16;8.50;;;7.03;;
8058;SDS011;4072;42.668;23.396;2023-10-13T02:01:47;10.57;;;6.67;;
8058;SDS011;4072;42.668;23.396;2023-10-13T02:04:14;6.57;;;5.70;;
8058;SDS011;4072;42.668;23.396;2023-10-13T02:06:48;6.60;;;5.90;;
8058;SDS011;4072;42.668;23.396;2023-10-13T02:09:15;7.73;;;6.53;;
8058;SDS011;4072;42.668;23.396;2023-10-13T02:11:53;7.87;;;6.20;;
8058;SDS011;4072;42.668;23.396;2023-10-13T02:14:21;8.70;;;6.70;;
8058;SDS011;4072;42.668;23.396;2023-10-13T02:16:52;6.93;;;6.03;;
8058;SDS011;4072;42.668;23.396;2023-10-13T02:19:38;9.43;;;6.47;;
8058;SDS011;4072;42.668;23.396;2023-10-13T02:22:12;6.93;;;6.13;;
8058;SDS011;4072;42.668;23.396;2023-10-13T02:24:51;7.90;;;6.10;;
8058;SDS011;4072;42.668;23.396;2023-10-13T02:27:21;9.40;;;5.87;;
8058;SDS011;4072;42.668;23.396;2023-10-13T02:29:50;7.70;;;5.13;;
8058;SDS011;4072;42.668;23.396;2023-10-13T02:32:26;9.17;;;5.67;;
8058;SDS011;4072;42.668;23.396;2023-10-13T02:34:56;7.07;;;5.97;;
8058;SDS011;4072;42.668;23.396;2023-10-13T02:37:33;8.33;;;6.10;;
8058;SDS011;4072;42.668;23.396;2023-10-13T02:40:02;6.37;;;5.33;;
8058;SDS011;4072;42.668;23.396;2023-10-13T02:42:33;5.77;;;5.03;;
8058;SDS011;4072;42.668;23.396;2023-10-13T02:45:01;6.83;;;4.93;;
8058;SDS011;4072;42.668;23.396;2023-10-13T02:47:30;7.10;;;5.40;;
8058;SDS011;4072;42.668;23.396;2023-10-13T02:49:58;7.23;;;6.37;;
8058;SDS011;4072;42.668;23.396;2023-10-13T02:52:38;9.83;;;7.87;;
8058;SDS011;4072;42.668;23.396;2023-10-13T02:55:08;10.23;;;6.87;;
8058;SDS011;4072;42.668;23.396;2023-10-13T02:57:42;9.43;;;7.70;;
8058;SDS011;4072;42.668;23.396;2023-10-13T03:00:09;8.00;;;7.20;;
8058;SDS011;4072;42.668;23.396;2023-10-13T03:02:42;12.13;;;8.73;;
8058;SDS011;4072;42.668;23.396;2023-10-13T03:05:12;10.83;;;7.93;;
8058;SDS011;4072;42.668;23.396;2023-10-13T03:07:44;7.07;;;5.20;;
8058;SDS011;4072;42.668;23.396;2023-10-13T03:10:12;6.70;;;5.60;;
8058;SDS011;4072;42.668;23.396;2023-10-13T03:12:43;6.07;;;5.50;;
8058;SDS011;4072;42.668;23.396;2023-10-13T03:15:14;6.00;;;5.40;;
8058;SDS011;4072;42.668;23.396;2023-10-13T03:17:44;7.03;;;5.10;;
8058;SDS011;4072;42.668;23.396;2023-10-13T03:20:12;8.83;;;5.97;;
8058;SDS011;4072;42.668;23.396;2023-10-13T03:22:42;6.37;;;5.77;;
8058;SDS011;4072;42.668;23.396;2023-10-13T03:25:13;8.20;;;6.93;;
8058;SDS011;4072;42.668;23.396;2023-10-13T03:27:51;9.73;;;6.70;;
8058;SDS011;4072;42.668;23.396;2023-10-13T03:30:33;11.87;;;7.60;;
8058;SDS011;4072;42.668;23.396;2023-10-13T03:33:05;10.50;;;9.37;;
8058;SDS011;4072;42.668;23.396;2023-10-13T03:35:36;10.07;;;8.07;;
8058;SDS011;4072;42.668;23.396;2023-10-13T03:38:07;14.47;;;9.87;;
8058;SDS011;4072;42.668;23.396;2023-10-13T03:40:46;12.57;;;11.00;;
8058;SDS011;4072;42.668;23.396;2023-10-13T03:43:35;11.90;;;8.93;;
8058;SDS011;4072;42.668;23.396;2023-10-13T03:46:12;11.20;;;7.40;;
8058;SDS011;4072;42.668;23.396;2023-10-13T03:48:40;12.83;;;9.90;;
8058;SDS011;4072;42.668;23.396;2023-10-13T03:51:21;11.73;;;8.53;;
8058;SDS011;4072;42.668;23.396;2023-10-13T03:53:57;10.10;;;9.00;;
8058;SDS011;4072;42.668;23.396;2023-10-13T03:56:28;9.53;;;7.33;;
8058;SDS011;4072;42.668;23.396;2023-10-13T03:59:08;10.73;;;8.07;;
8058;SDS011;4072;42.668;23.396;2023-10-13T04:01:46;10.40;;;7.27;;
8058;SDS011;4072;42.668;23.396;2023-10-13T04:04:25;9.37;;;7.20;;
8058;SDS011;4072;42.668;23.396;2023-10-13T04:07:14;8.63;;;7.73;;
8058;SDS011;4072;42.668;23.396;2023-10-13T04:10:00;9.70;;;7.63;;
8058;SDS011;4072;42.668;23.396;2023-10-13T04:13:01;8.67;;;7.50;;
8058;SDS011;4072;42.668;23.396;2023-10-13T04:15:48;10.00;;;7.30;;
8058;SDS011;4072;42.668;23.396;2023-10-13T04:18:41;11.17;;;8.40;;
8058;SDS011;4072;42.668;23.396;2023-10-13T04:21:34;9.07;;;8.03;;
8058;SDS011;4072;42.668;23.396;2023-10-13T04:24:06;10.30;;;8.00;;
8058;SDS011;4072;42.668;23.396;2023-10-13T04:26:55;9.40;;;8.50;;
8058;SDS011;4072;42.668;23.396;2023-10-13T04:29:41;9.13;;;7.97;;
8058;SDS011;4072;42.668;23.396;2023-10-13T04:32:25;10.77;;;8.30;;
8058;SDS011;4072;42.668;23.396;2023-10-13T04:34:55;14.30;;;9.17;;
8058;SDS011;4072;42.668;23.396;2023-10-13T04:37:35;11.77;;;8.93;;
8058;SDS011;4072;42.668;23.396;2023-10-13T04:40:18;12.10;;;9.83;;
8058;SDS011;4072;42.668;23.396;2023-10-13T04:42:52;15.60;;;10.90;;
8058;SDS011;4072;42.668;23.396;2023-10-13T04:45:25;16.43;;;11.47;;
8058;SDS011;4072;42.668;23.396;2023-10-13T04:48:14;14.83;;;12.07;;
8058;SDS011;4072;42.668;23.396;2023-10-13T04:50:58;13.30;;;11.30;;
8058;SDS011;4072;42.668;23.396;2023-10-13T04:53:42;21.10;;;11.73;;
8058;SDS011;4072;42.668;23.396;2023-10-13T04:56:24;21.37;;;15.13;;
8058;SDS011;4072;42.668;23.396;2023-10-13T04:59:12;29.80;;;17.47;;
8058;SDS011;4072;42.668;23.396;2023-10-13T05:01:45;32.03;;;24.77;;
8058;SDS011;4072;42.668;23.396;2023-10-13T05:04:38;30.40;;;21.63;;
8058;SDS011;4072;42.668;23.396;2023-10-13T05:07:22;24.60;;;19.43;;
8058;SDS011;4072;42.668;23.396;2023-10-13T05:10:08;30.57;;;22.50;;
8058;SDS011;4072;42.668;23.396;2023-10-13T05:12:54;33.60;;;22.13;;
8058;SDS011;4072;42.668;23.396;2023-10-13T05:15:43;23.90;;;17.87;;
8058;SDS011;4072;42.668;23.396;2023-10-13T05:18:29;21.57;;;16.07;;
8058;SDS011;4072;42.668;23.396;2023-10-13T05:21:17;29.07;;;20.87;;
8058;SDS011;4072;42.668;23.396;2023-10-13T05:24:03;32.90;;;23.67;;
8058;SDS011;4072;42.668;23.396;2023-10-13T05:26:51;35.13;;;23.10;;
8058;SDS011;4072;42.668;23.396;2023-10-13T05:29:38;25.83;;;19.70;;
8058;SDS011;4072;42.668;23.396;2023-10-13T05:32:26;28.77;;;20.17;;
8058;SDS011;4072;42.668;23.396;2023-10-13T05:35:14;31.03;;;20.70;;
8058;SDS011;4072;42.668;23.396;2023-10-13T05:38:02;28.07;;;19.83;;
8058;SDS011;4072;42.668;23.396;2023-10-13T05:40:51;33.83;;;19.33;;
8058;SDS011;4072;42.668;23.396;2023-10-13T05:43:44;22.90;;;16.60;;
8058;SDS011;4072;42.668;23.396;2023-10-13T05:46:31;22.30;;;16.27;;
8058;SDS011;4072;42.668;23.396;2023-10-13T05:49:13;25.43;;;17.63;;
8058;SDS011;4072;42.668;23.396;2023-10-13T05:52:07;27.17;;;17.27;;
8058;SDS011;4072;42.668;23.396;2023-10-13T05:54:47;26.63;;;18.60;;
8058;SDS011;4072;42.668;23.396;2023-10-13T05:57:36;29.40;;;17.97;;
8058;SDS011;4072;42.668;23.396;2023-10-13T06:00:21;25.53;;;18.47;;
8058;SDS011;4072;42.668;23.396;2023-10-13T06:03:06;20.60;;;16.47;;
8058;SDS011;4072;42.668;23.396;2023-10-13T06:05:52;23.87;;;17.30;;
8058;SDS011;4072;42.668;23.396;2023-10-13T06:08:52;21.30;;;15.40;;
8058;SDS011;4072;42.668;23.396;2023-10-13T06:11:39;17.97;;;12.63;;
8058;SDS011;4072;42.668;23.396;2023-10-13T06:14:24;20.27;;;12.43;;
8058;SDS011;4072;42.668;23.396;2023-10-13T06:17:10;19.83;;;11.77;;
8058;SDS011;4072;42.668;23.396;2023-10-13T06:19:55;18.13;;;12.13;;
8058;SDS011;4072;42.668;23.396;2023-10-13T06:22:41;22.23;;;13.20;;
8058;SDS011;4072;42.668;23.396;2023-10-13T06:25:23;17.83;;;12.93;;
8058;SDS011;4072;42.668;23.396;2023-10-13T06:28:11;17.67;;;13.13;;
8058;SDS011;4072;42.668;23.396;2023-10-13T06:30:57;19.30;;;12.87;;
8058;SDS011;4072;42.668;23.396;2023-10-13T06:33:28;16.53;;;12.20;;
8058;SDS011;4072;42.668;23.396;2023-10-13T06:35:56;23.63;;;13.13;;
8058;SDS011;4072;42.668;23.396;2023-10-13T06:38:25;18.73;;;11.90;;
8058;SDS011;4072;42.668;23.396;2023-10-13T06:40:57;19.33;;;12.70;;
8058;SDS011;4072;42.668;23.396;2023-10-13T06:43:27;23.07;;;13.27;;
8058;SDS011;4072;42.668;23.396;2023-10-13T06:46:00;22.30;;;15.93;;
8058;SDS011;4072;42.668;23.396;2023-10-13T06:48:28;36.50;;;24.13;;
8058;SDS011;4072;42.668;23.396;2023-10-13T06:51:00;29.47;;;14.77;;
8058;SDS011;4072;42.668;23.396;2023-10-13T06:53:44;17.93;;;12.67;;
8058;SDS011;4072;42.668;23.396;2023-10-13T06:56:14;21.77;;;11.77;;
8058;SDS011;4072;42.668;23.396;2023-10-13T06:58:47;16.73;;;12.97;;
8058;SDS011;4072;42.668;23.396;2023-10-13T07:01:15;24.30;;;15.33;;
8058;SDS011;4072;42.668;23.396;2023-10-13T07:03:44;20.50;;;12.87;;
8058;SDS011;4072;42.668;23.396;2023-10-13T07:06:19;22.67;;;13.93;;
8058;SDS011;4072;42.668;23.396;2023-10-13T07:08:47;17.43;;;13.00;;
8058;SDS011;4072;42.668;23.396;2023-10-13T07:11:19;16.57;;;12.23;;
8058;SDS011;4072;42.668;23.396;2023-10-13T07:14:03;22.30;;;13.23;;
8058;SDS011;4072;42.668;23.396;2023-10-13T07:16:54;15.37;;;10.97;;
8058;SDS011;4072;42.668;23.396;2023-10-13T07:19:26;19.13;;;10.30;;
8058;SDS011;4072;42.668;23.396;2023-10-13T07:21:55;26.87;;;19.33;;
8058;SDS011;4072;42.668;23.396;2023-10-13T07:24:26;46.07;;;27.97;;
8058;SDS011;4072;42.668;23.396;2023-10-13T07:27:02;26.47;;;17.40;;
8058;SDS011;4072;42.668;23.396;2023-10-13T07:29:34;24.87;;;15.60;;
8058;SDS011;4072;42.668;23.396;2023-10-13T07:32:03;19.70;;;13.57;;
8058;SDS011;4072;42.668;23.396;2023-10-13T07:34:39;21.50;;;13.33;;
8058;SDS011;4072;42.668;23.396;2023-10-13T07:37:07;19.33;;;12.63;;
8058;SDS011;4072;42.668;23.396;2023-10-13T07:39:35;14.70;;;11.10;;
8058;SDS011;4072;42.668;23.396;2023-10-13T07:42:05;14.63;;;10.70;;
8058;SDS011;4072;42.668;23.396;2023-10-13T07:44:43;14.33;;;10.53;;
8058;SDS011;4072;42.668;23.396;2023-10-13T07:47:13;16.50;;;11.33;;
8058;SDS011;4072;42.668;23.396;2023-10-13T07:49:46;16.13;;;11.70;;
8058;SDS011;4072;42.668;23.396;2023-10-13T07:52:18;18.27;;;12.03;;
8058;SDS011;4072;42.668;23.396;2023-10-13T07:54:57;17.43;;;12.30;;
8058;SDS011;4072;42.668;23.396;2023-10-13T07:57:38;17.67;;;13.90;;
8058;SDS011;4072;42.668;23.396;2023-10-13T08:00:23;18.97;;;12.57;;
8058;SDS011;4072;42.668;23.396;2023-10-13T08:03:14;17.70;;;11.03;;
8058;SDS011;4072;42.668;23.396;2023-10-13T08:06:10;17.87;;;11.97;;
8058;SDS011;4072;42.668;23.396;2023-10-13T08:08:52;15.47;;;11.00;;
8058;SDS011;4072;42.668;23.396;2023-10-13T08:11:24;15.67;;;11.37;;
8058;SDS011;4072;42.668;23.396;2023-10-13T08:13:54;14.93;;;10.53;;
8058;SDS011;4072;42.668;23.396;2023-10-13T08:16:39;14.67;;;11.77;;
8058;SDS011;4072;42.668;23.396;2023-10-13T08:19:19;17.20;;;11.77;;
8058;SDS011;4072;42.668;23.396;2023-10-13T08:21:54;17.53;;;11.63;;
8058;SDS011;4072;42.668;23.396;2023-10-13T08:24:26;16.50;;;11.63;;
8058;SDS011;4072;42.668;23.396;2023-10-13T08:27:18;16.07;;;11.37;;
8058;SDS011;4072;42.668;23.396;2023-10-13T08:30:02;20.20;;;10.77;;
8058;SDS011;4072;42.668;23.396;2023-10-13T08:33:05;21.07;;;11.43;;
8058;SDS011;4072;42.668;23.396;2023-10-13T08:35:44;18.30;;;11.07;;
8058;SDS011;4072;42.668;23.396;2023-10-13T08:38:32;15.60;;;10.87;;
8058;SDS011;4072;42.668;23.396;2023-10-13T08:41:18;15.30;;;12.13;;
8058;SDS011;4072;42.668;23.396;2023-10-13T08:44:00;23.87;;;12.33;;
8058;SDS011;4072;42.668;23.396;2023-10-13T08:46:36;19.27;;;11.63;;
8058;SDS011;4072;42.668;23.396;2023-10-13T08:49:25;15.53;;;11.67;;
8058;SDS011;4072;42.668;23.396;2023-10-13T08:51:56;14.43;;;12.07;;
8058;SDS011;4072;42.668;23.396;2023-10-13T08:54:35;22.40;;;12.63;;
8058;SDS011;4072;42.668;23.396;2023-10-13T08:57:29;19.20;;;13.20;;
8058;SDS011;4072;42.668;23.396;2023-10-13T09:00:00;17.47;;;12.60;;
8058;SDS011;4072;42.668;23.396;2023-10-13T09:02:45;16.87;;;12.53;;
8058;SDS011;4072;42.668;23.396;2023-10-13T09:05:45;19.33;;;13.50;;
8058;SDS011;4072;42.668;23.396;2023-10-13T09:08:28;15.37;;;13.00;;
8058;SDS011;4072;42.668;23.396;2023-10-13T09:11:03;19.57;;;13.93;;
8058;SDS011;4072;42.668;23.396;2023-10-13T09:13:39;20.87;;;15.37;;
8058;SDS011;4072;42.668;23.396;2023-10-13T09:16:13;20.33;;;13.87;;
8058;SDS011;4072;42.668;23.396;2023-10-13T09:19:09;24.67;;;13.67;;
8058;SDS011;4072;42.668;23.396;2023-10-13T09:21:40;14.63;;;13.10;;
8058;SDS011;4072;42.668;23.396;2023-10-13T09:24:15;26.07;;;17.30;;
8058;SDS011;4072;42.668;23.396;2023-10-13T09:26:43;19.23;;;13.80;;
8058;SDS011;4072;42.668;23.396;2023-10-13T09:29:15;19.70;;;14.07;;
8058;SDS011;4072;42.668;23.396;2023-10-13T09:31:46;24.50;;;17.07;;
8058;SDS011;4072;42.668;23.396;2023-10-13T09:34:21;25.83;;;14.77;;
8058;SDS011;4072;42.668;23.396;2023-10-13T09:36:51;18.60;;;15.50;;
8058;SDS011;4072;42.668;23.396;2023-10-13T09:39:24;19.23;;;13.15;;
8058;SDS011;4072;42.668;23.396;2023-10-13T09:42:07;20.00;;;16.47;;
8058;SDS011;4072;42.668;23.396;2023-10-13T09:44:40;23.35;;;14.10;;
8058;SDS011;4072;42.668;23.396;2023-10-13T09:47:18;19.85;;;13.27;;
8058;SDS011;4072;42.668;23.396;2023-10-13T09:49:59;20.95;;;13.18;;
8058;SDS011;4072;42.668;23.396;2023-10-13T09:52:33;16.25;;;12.15;;
8058;SDS011;4072;42.668;23.396;2023-10-13T09:55:11;17.55;;;12.43;;
8058;SDS011;4072;42.668;23.396;2023-10-13T09:57:48;19.42;;;13.82;;
8058;SDS011;4072;42.668;23.396;2023-10-13T10:00:27;20.63;;;12.82;;
8058;SDS011;4072;42.668;23.396;2023-10-13T10:03:15;18.23;;;13.07;;
8058;SDS011;4072;42.668;23.396;2023-10-13T10:05:58;14.18;;;11.73;;
8058;SDS011;4072;42.668;23.396;2023-10-13T10:08:34;20.98;;;12.23;;
8058;SDS011;4072;42.668;23.396;2023-10-13T10:14:14;17.65;;;12.85;;
8058;SDS011;4072;42.668;23.396;2023-10-13T10:16:51;23.65;;;12.95;;
8058;SDS011;4072;42.668;23.396;2023-10-13T10:19:45;15.77;;;10.88;;
8058;SDS011;4072;42.668;23.396;2023-10-13T10:22:26;17.75;;;11.15;;
8058;SDS011;4072;42.668;23.396;2023-10-13T10:25:00;19.83;;;9.90;;
8058;SDS011;4072;42.668;23.396;2023-10-13T10:27:30;18.45;;;10.85;;
8058;SDS011;4072;42.668;23.396;2023-10-13T10:29:59;16.08;;;12.10;;
8058;SDS011;4072;42.668;23.396;2023-10-13T10:32:34;11.52;;;8.70;;
8058;SDS011;4072;42.668;23.396;2023-10-13T10:35:07;16.98;;;9.23;;
8058;SDS011;4072;42.668;23.396;2023-10-13T10:37:42;17.85;;;7.95;;
8058;SDS011;4072;42.668;23.396;2023-10-13T10:40:16;13.95;;;8.07;;
8058;SDS011;4072;42.668;23.396;2023-10-13T10:43:01;16.25;;;7.97;;
8058;SDS011;4072;42.668;23.396;2023-10-13T10:45:54;13.85;;;7.65;;
8058;SDS011;4072;42.668;23.396;2023-10-13T10:48:26;16.48;;;12.40;;
8058;SDS011;4072;42.668;23.396;2023-10-13T10:51:00;9.68;;;5.32;;
8058;SDS011;4072;42.668;23.396;2023-10-13T10:53:41;7.43;;;4.80;;
8058;SDS011;4072;42.668;23.396;2023-10-13T10:56:17;10.15;;;5.57;;
8058;SDS011;4072;42.668;23.396;2023-10-13T10:58:54;7.45;;;5.72;;
8058;SDS011;4072;42.668;23.396;2023-10-13T11:01:24;7.32;;;5.47;;
8058;SDS011;4072;42.668;23.396;2023-10-13T11:04:01;12.13;;;5.78;;
8058;SDS011;4072;42.668;23.396;2023-10-13T11:06:36;8.57;;;5.40;;
8058;SDS011;4072;42.668;23.396;2023-10-13T11:09:09;8.15;;;4.85;;
8058;SDS011;4072;42.668;23.396;2023-10-13T11:11:49;10.45;;;5.38;;
8058;SDS011;4072;42.668;23.396;2023-10-13T11:14:20;8.50;;;3.33;;
8058;SDS011;4072;42.668;23.396;2023-10-13T11:16:50;9.13;;;4.40;;
8058;SDS011;4072;42.668;23.396;2023-10-13T11:19:21;3.58;;;3.05;;
8058;SDS011;4072;42.668;23.396;2023-10-13T11:21:54;9.43;;;4.22;;
8058;SDS011;4072;42.668;23.396;2023-10-13T11:24:23;5.57;;;3.85;;
8058;SDS011;4072;42.668;23.396;2023-10-13T11:26:54;7.57;;;4.28;;
8058;SDS011;4072;42.668;23.396;2023-10-13T11:29:30;5.78;;;3.45;;
8058;SDS011;4072;42.668;23.396;2023-10-13T11:32:00;4.88;;;4.18;;
8058;SDS011;4072;42.668;23.396;2023-10-13T11:34:30;5.15;;;3.90;;
8058;SDS011;4072;42.668;23.396;2023-10-13T11:37:07;6.75;;;4.18;;
8058;SDS011;4072;42.668;23.396;2023-10-13T11:39:53;5.78;;;3.80;;
8058;SDS011;4072;42.668;23.396;2023-10-13T11:42:23;6.97;;;4.03;;
8058;SDS011;4072;42.668;23.396;2023-10-13T11:44:53;4.60;;;3.50;;
8058;SDS011;4072;42.668;23.396;2023-10-13T11:47:42;5.30;;;3.40;;
8058;SDS011;4072;42.668;23.396;2023-10-13T11:50:24;6.32;;;3.42;;
8058;SDS011;4072;42.668;23.396;2023-10-13T11:52:59;8.52;;;4.70;;
8058;SDS011;4072;42.668;23.396;2023-10-13T11:55:29;5.28;;;4.30;;
8058;SDS011;4072;42.668;23.396;2023-10-13T11:57:58;7.55;;;3.95;;
8058;SDS011;4072;42.668;23.396;2023-10-13T12:00:26;7.32;;;3.22;;
8058;SDS011;4072;42.668;23.396;2023-10-13T12:03:16;8.68;;;3.03;;
8058;SDS011;4072;42.668;23.396;2023-10-13T12:06:02;6.53;;;3.30;;
8058;SDS011;4072;42.668;23.396;2023-10-13T12:08:59;7.25;;;3.30;;
8058;SDS011;4072;42.668;23.396;2023-10-13T12:11:40;6.30;;;3.20;;
8058;SDS011;4072;42.668;23.396;2023-10-13T12:14:10;2.95;;;2.63;;
8058;SDS011;4072;42.668;23.396;2023-10-13T12:16:48;4.68;;;3.50;;
8058;SDS011;4072;42.668;23.396;2023-10-13T12:19:19;8.18;;;6.93;;
8058;SDS011;4072;42.668;23.396;2023-10-13T12:21:50;3.47;;;3.03;;
8058;SDS011;4072;42.668;23.396;2023-10-13T12:24:21;5.97;;;3.63;;
8058;SDS011;4072;42.668;23.396;2023-10-13T12:27:06;5.38;;;3.38;;
8058;SDS011;4072;42.668;23.396;2023-10-13T12:29:48;4.75;;;3.15;;
8058;SDS011;4072;42.668;23.396;2023-10-13T12:32:18;6.25;;;3.45;;
8058;SDS011;4072;42.668;23.396;2023-10-13T12:34:49;4.63;;;3.50;;
8058;SDS011;4072;42.668;23.396;2023-10-13T12:37:43;8.13;;;4.82;;
8058;SDS011;4072;42.668;23.396;2023-10-13T12:40:18;5.47;;;3.15;;
8058;SDS011;4072;42.668;23.396;2023-10-13T12:43:06;7.03;;;3.25;;
8058;SDS011;4072;42.668;23.396;2023-10-13T12:45:53;5.80;;;4.00;;
8058;SDS011;4072;42.668;23.396;2023-10-13T12:48:42;7.57;;;4.78;;
8058;SDS011;4072;42.668;23.396;2023-10-13T12:51:44;4.88;;;3.80;;
8058;SDS011;4072;42.668;23.396;2023-10-13T12:54:18;6.20;;;3.60;;
8058;SDS011;4072;42.668;23.396;2023-10-13T12:56:54;9.48;;;6.97;;
8058;SDS011;4072;42.668;23.396;2023-10-13T12:59:24;7.47;;;3.72;;
8058;SDS011;4072;42.668;23.396;2023-10-13T13:01:57;7.97;;;5.70;;
8058;SDS011;4072;42.668;23.396;2023-10-13T13:04:26;8.52;;;4.18;;
8058;SDS011;4072;42.668;23.396;2023-10-13T13:06:58;8.65;;;3.53;;
8058;SDS011;4072;42.668;23.396;2023-10-13T13:09:27;3.45;;;2.60;;
8058;SDS011;4072;42.668;23.396;2023-10-13T13:11:55;5.43;;;3.40;;
8058;SDS011;4072;42.668;23.396;2023-10-13T13:14:24;7.70;;;3.30;;
8058;SDS011;4072;42.668;23.396;2023-10-13T13:16:57;8.00;;;2.97;;
8058;SDS011;4072;42.668;23.396;2023-10-13T13:19:32;4.50;;;3.40;;
8058;SDS011;4072;42.668;23.396;2023-10-13T13:22:04;4.97;;;2.97;;
8058;SDS011;4072;42.668;23.396;2023-10-13T13:24:38;7.57;;;3.40;;
8058;SDS011;4072;42.668;23.396;2023-10-13T13:27:10;4.68;;;2.75;;
8058;SDS011;4072;42.668;23.396;2023-10-13T13:29:40;3.50;;;2.50;;
8058;SDS011;4072;42.668;23.396;2023-10-13T13:32:10;4.25;;;3.13;;
8058;SDS011;4072;42.668;23.396;2023-10-13T13:34:45;8.35;;;2.90;;
8058;SDS011;4072;42.668;23.396;2023-10-13T13:37:21;4.60;;;2.90;;
8058;SDS011;4072;42.668;23.396;2023-10-13T13:39:54;3.97;;;3.33;;
8058;SDS011;4072;42.668;23.396;2023-10-13T13:42:23;5.07;;;3.33;;
8058;SDS011;4072;42.668;23.396;2023-10-13T13:44:52;4.38;;;3.25;;
8058;SDS011;4072;42.668;23.396;2023-10-13T13:47:21;4.15;;;3.50;;
8058;SDS011;4072;42.668;23.396;2023-10-13T13:49:50;6.00;;;3.50;;
8058;SDS011;4072;42.668;23.396;2023-10-13T13:52:22;6.38;;;3.25;;
8058;SDS011;4072;42.668;23.396;2023-10-13T13:55:00;8.38;;;3.33;;
8058;SDS011;4072;42.668;23.396;2023-10-13T13:57:30;6.40;;;3.55;;
8058;SDS011;4072;42.668;23.396;2023-10-13T13:59:58;4.88;;;3.13;;
8058;SDS011;4072;42.668;23.396;2023-10-13T14:02:27;5.85;;;2.85;;
8058;SDS011;4072;42.668;23.396;2023-10-13T14:04:56;5.35;;;3.08;;
8058;SDS011;4072;42.668;23.396;2023-10-13T14:07:25;9.02;;;3.45;;
8058;SDS011;4072;42.668;23.396;2023-10-13T14:09:59;6.07;;;2.97;;
8058;SDS011;4072;42.668;23.396;2023-10-13T14:12:33;7.35;;;3.58;;
8058;SDS011;4072;42.668;23.396;2023-10-13T14:15:08;5.85;;;3.28;;
8058;SDS011;4072;42.668;23.396;2023-10-13T14:17:48;9.07;;;4.63;;
8058;SDS011;4072;42.668;23.396;2023-10-13T14:20:18;7.65;;;3.40;;
8058;SDS011;4072;42.668;23.396;2023-10-13T14:22:47;5.50;;;2.97;;
8058;SDS011;4072;42.668;23.396;2023-10-13T14:25:15;6.60;;;3.70;;
8058;SDS011;4072;42.668;23.396;2023-10-13T14:27:44;3.67;;;2.92;;
8058;SDS011;4072;42.668;23.396;2023-10-13T14:30:14;6.00;;;3.50;;
8058;SDS011;4072;42.668;23.396;2023-10-13T14:32:48;6.88;;;3.58;;
8058;SDS011;4072;42.668;23.396;2023-10-13T14:35:16;4.90;;;3.28;;
8058;SDS011;4072;42.668;23.396;2023-10-13T14:37:45;7.10;;;3.55;;
8058;SDS011;4072;42.668;23.396;2023-10-13T14:40:13;7.03;;;3.67;;
8058;SDS011;4072;42.668;23.396;2023-10-13T14:42:42;8.38;;;3.47;;
8058;SDS011;4072;42.668;23.396;2023-10-13T14:45:11;5.43;;;4.28;;
8058;SDS011;4072;42.668;23.396;2023-10-13T14:47:40;6.07;;;3.65;;
8058;SDS011;4072;42.668;23.396;2023-10-13T14:50:10;7.22;;;3.55;;
8058;SDS011;4072;42.668;23.396;2023-10-13T14:52:46;4.85;;;3.50;;
8058;SDS011;4072;42.668;23.396;2023-10-13T14:55:15;5.35;;;3.60;;
8058;SDS011;4072;42.668;23.396;2023-10-13T14:57:46;4.18;;;2.92;;
8058;SDS011;4072;42.668;23.396;2023-10-13T15:00:17;6.35;;;3.42;;
8058;SDS011;4072;42.668;23.396;2023-10-13T15:02:52;5.78;;;3.78;;
8058;SDS011;4072;42.668;23.396;2023-10-13T15:05:23;11.77;;;4.20;;
8058;SDS011;4072;42.668;23.396;2023-10-13T15:07:51;10.02;;;3.83;;
8058;SDS011;4072;42.668;23.396;2023-10-13T15:10:20;5.35;;;3.63;;
8058;SDS011;4072;42.668;23.396;2023-10-13T15:12:48;6.47;;;3.03;;
8058;SDS011;4072;42.668;23.396;2023-10-13T15:15:16;6.05;;;2.28;;
8058;SDS011;4072;42.668;23.396;2023-10-13T15:17:46;6.13;;;2.47;;
8058;SDS011;4072;42.668;23.396;2023-10-13T15:20:15;5.90;;;2.47;;
8058;SDS011;4072;42.668;23.396;2023-10-13T15:22:45;5.38;;;2.58;;
8058;SDS011;4072;42.668;23.396;2023-10-13T15:25:14;4.35;;;2.60;;
8058;SDS011;4072;42.668;23.396;2023-10-13T15:27:57;4.22;;;2.22;;
8058;SDS011;4072;42.668;23.396;2023-10-13T15:30:29;3.90;;;2.08;;
8058;SDS011;4072;42.668;23.396;2023-10-13T15:33:11;6.88;;;2.78;;
8058;SDS011;4072;42.668;23.396;2023-10-13T15:35:40;7.95;;;3.08;;
8058;SDS011;4072;42.668;23.396;2023-10-13T15:38:11;4.93;;;2.47;;
8058;SDS011;4072;42.668;23.396;2023-10-13T15:40:42;7.38;;;2.80;;
8058;SDS011;4072;42.668;23.396;2023-10-13T15:43:11;4.65;;;2.55;;
8058;SDS011;4072;42.668;23.396;2023-10-13T15:45:39;8.73;;;3.17;;
8058;SDS011;4072;42.668;23.396;2023-10-13T15:48:09;7.75;;;3.20;;